sensor_id;sensor_type;location;lat;lon;timestamp;pressure;altitude;pressure_sealevel;temperature;humidity
12793;BME280;6460;42.684;23.260;2023-01-25T05:25:41;95621.88;;;2.70;100.00
12793;BME280;6460;42.684;23.260;2023-01-25T05:28:26;95623.47;;;2.71;100.00
12793;BME280;6460;42.684;23.260;2023-01-25T05:30:53;95628.28;;;2.64;100.00
12793;BME280;6460;42.684;23.260;2023-01-25T05:33:20;95625.31;;;2.71;100.00
12793;BME280;6460;42.684;23.260;2023-01-25T05:35:48;95630.56;;;2.76;100.00
12793;BME280;6460;42.684;23.260;2023-01-25T05:38:15;95629.75;;;2.80;100.00
12793;BME280;6460;42.684;23.260;2023-01-25T05:40:43;95628.88;;;2.85;100.00
12793;BME280;6460;42.684;23.260;2023-01-25T05:43:10;95629.19;;;2.83;100.00
12793;BME280;6460;42.684;23.260;2023-01-25T05:45:38;95632.81;;;2.63;100.00
12793;BME280;6460;42.684;23.260;2023-01-25T05:48:05;95627.75;;;2.62;100.00
12793;BME280;6460;42.684;23.260;2023-01-25T05:50:32;95631.84;;;2.54;100.00
12793;BME280;6460;42.684;23.260;2023-01-25T05:52:59;95634.06;;;2.71;100.00
12793;BME280;6460;42.684;23.260;2023-01-25T05:55:26;95641.91;;;2.81;100.00
12793;BME280;6460;42.684;23.260;2023-01-25T05:57:55;95629.66;;;2.90;100.00
12793;BME280;6460;42.684;23.260;2023-01-25T06:00:22;95633.69;;;3.06;100.00
12793;BME280;6460;42.684;23.260;2023-01-25T06:02:49;95639.53;;;3.08;100.00
12793;BME280;6460;42.684;23.260;2023-01-25T06:05:16;95638.00;;;3.02;100.00
12793;BME280;6460;42.684;23.260;2023-01-25T06:07:43;95633.69;;;3.06;100.00
12793;BME280;6460;42.684;23.260;2023-01-25T06:10:10;95638.00;;;3.02;100.00
12793;BME280;6460;42.684;23.260;2023-01-25T06:12:37;95638.13;;;2.92;100.00
12793;BME280;6460;42.684;23.260;2023-01-25T06:15:07;95642.84;;;2.95;100.00
12793;BME280;6460;42.684;23.260;2023-01-25T06:17:34;95651.25;;;2.79;100.00
12793;BME280;6460;42.684;23.260;2023-01-25T06:20:02;95646.34;;;2.91;100.00
12793;BME280;6460;42.684;23.260;2023-01-25T06:22:29;95644.22;;;2.93;100.00
12793;BME280;6460;42.684;23.260;2023-01-25T06:24:56;95650.00;;;3.00;100.00
12793;BME280;6460;42.684;23.260;2023-01-25T06:27:23;95647.53;;;3.03;100.00
12793;BME280;6460;42.684;23.260;2023-01-25T06:29:50;95651.31;;;2.97;100.00
12793;BME280;6460;42.684;23.260;2023-01-25T06:32:18;95640.78;;;2.63;100.00
12793;BME280;6460;42.684;23.260;2023-01-25T06:34:45;95639.72;;;2.64;100.00
12793;BME280;6460;42.684;23.260;2023-01-25T06:37:12;95648.22;;;2.90;100.00
12793;BME280;6460;42.684;23.260;2023-01-25T06:39:39;95645.50;;;2.95;100.00
12793;BME280;6460;42.684;23.260;2023-01-25T06:42:07;95644.38;;;3.01;100.00
12793;BME280;6460;42.684;23.260;2023-01-25T06:44:34;95638.25;;;2.48;100.00
12793;BME280;6460;42.684;23.260;2023-01-25T06:47:01;95638.84;;;2.98;100.00
12793;BME280;6460;42.684;23.260;2023-01-25T06:49:29;95647.19;;;2.86;100.00
12793;BME280;6460;42.684;23.260;2023-01-25T06:51:56;95636.06;;;2.84;100.00
12793;BME280;6460;42.684;23.260;2023-01-25T06:54:25;95636.16;;;2.74;100.00
12793;BME280;6460;42.684;23.260;2023-01-25T06:56:53;95637.72;;;2.75;100.00
12793;BME280;6460;42.684;23.260;2023-01-25T06:59:20;95634.25;;;3.03;100.00
12793;BME280;6460;42.684;23.260;2023-01-25T07:01:47;95629.19;;;3.07;100.00
12793;BME280;6460;42.684;23.260;2023-01-25T07:04:14;95635.97;;;2.94;100.00
12793;BME280;6460;42.684;23.260;2023-01-25T07:06:43;95638.84;;;2.69;100.00
12793;BME280;6460;42.684;23.260;2023-01-25T07:09:12;95640.78;;;2.87;100.00
12793;BME280;6460;42.684;23.260;2023-01-25T07:11:40;95636.34;;;2.54;100.00
12793;BME280;6460;42.684;23.260;2023-01-25T07:14:07;95642.38;;;2.59;100.00
12793;BME280;6460;42.684;23.260;2023-01-25T07:16:34;95634.34;;;2.70;100.00
12793;BME280;6460;42.684;23.260;2023-01-25T07:19:06;95641.09;;;2.57;100.00
12793;BME280;6460;42.684;23.260;2023-01-25T07:21:33;95639.88;;;2.73;100.00
12793;BME280;6460;42.684;23.260;2023-01-25T07:24:03;95642.91;;;2.61;100.00
12793;BME280;6460;42.684;23.260;2023-01-25T07:26:31;95647.00;;;2.49;100.00
12793;BME280;6460;42.684;23.260;2023-01-25T07:28:58;95643.91;;;2.37;100.00
12793;BME280;6460;42.684;23.260;2023-01-25T07:31:25;95657.22;;;2.27;100.00
12793;BME280;6460;42.684;23.260;2023-01-25T07:33:53;95649.38;;;2.79;100.00
12793;BME280;6460;42.684;23.260;2023-01-25T07:36:21;95653.66;;;2.75;100.00
12793;BME280;6460;42.684;23.260;2023-01-25T07:38:51;95658.16;;;3.03;100.00
12793;BME280;6460;42.684;23.260;2023-01-25T07:41:20;95655.97;;;3.10;100.00
12793;BME280;6460;42.684;23.260;2023-01-25T07:43:46;95660.72;;;2.90;100.00
12793;BME280;6460;42.684;23.260;2023-01-25T07:46:13;95657.72;;;2.96;100.00
12793;BME280;6460;42.684;23.260;2023-01-25T07:48:45;95661.38;;;3.00;100.00
12793;BME280;6460;42.684;23.260;2023-01-25T07:51:13;95654.47;;;2.76;100.00
12793;BME280;6460;42.684;23.260;2023-01-25T07:53:49;95649.88;;;3.10;100.00
12793;BME280;6460;42.684;23.260;2023-01-25T07:56:16;95649.19;;;2.99;100.00
12793;BME280;6460;42.684;23.260;2023-01-25T07:58:46;95647.41;;;3.18;100.00
12793;BME280;6460;42.684;23.260;2023-01-25T08:01:14;95652.91;;;2.98;100.00
12793;BME280;6460;42.684;23.260;2023-01-25T08:03:42;95649.44;;;2.74;100.00
12793;BME280;6460;42.684;23.260;2023-01-25T08:06:10;95647.53;;;3.03;100.00
12793;BME280;6460;42.684;23.260;2023-01-25T08:08:38;95652.91;;;2.98;100.00
12793;BME280;6460;42.684;23.260;2023-01-25T08:11:08;95653.38;;;3.05;100.00
12793;BME280;6460;42.684;23.260;2023-01-25T08:13:36;95646.47;;;3.04;100.00
12793;BME280;6460;42.684;23.260;2023-01-25T08:16:05;95652.03;;;3.08;100.00
12793;BME280;6460;42.684;23.260;2023-01-25T08:18:32;95649.13;;;3.04;100.00
12793;BME280;6460;42.684;23.260;2023-01-25T08:20:59;95652.16;;;3.22;100.00
12793;BME280;6460;42.684;23.260;2023-01-25T08:23:27;95646.09;;;2.87;100.00
12793;BME280;6460;42.684;23.260;2023-01-25T08:25:55;95655.75;;;3.07;100.00
12793;BME280;6460;42.684;23.260;2023-01-25T08:28:22;95646.91;;;2.59;100.00
12793;BME280;6460;42.684;23.260;2023-01-25T08:30:49;95649.66;;;2.49;100.00
12793;BME280;6460;42.684;23.260;2023-01-25T08:33:17;95643.03;;;2.75;100.00
12793;BME280;6460;42.684;23.260;2023-01-25T08:35:53;95646.47;;;2.81;100.00
12793;BME280;6460;42.684;23.260;2023-01-25T08:38:22;95647.03;;;3.49;100.00
12793;BME280;6460;42.684;23.260;2023-01-25T08:40:49;95647.72;;;3.36;100.00
12793;BME280;6460;42.684;23.260;2023-01-25T08:43:19;95652.78;;;3.37;100.00
12793;BME280;6460;42.684;23.260;2023-01-25T08:45:47;95658.59;;;2.58;100.00
12793;BME280;6460;42.684;23.260;2023-01-25T08:48:23;95636.56;;;3.15;100.00
12793;BME280;6460;42.684;23.260;2023-01-25T08:50:50;95638.34;;;2.96;100.00
12793;BME280;6460;42.684;23.260;2023-01-25T08:53:17;95635.75;;;3.14;100.00
12793;BME280;6460;42.684;23.260;2023-01-25T08:55:44;95638.03;;;2.97;100.00
12793;BME280;6460;42.684;23.260;2023-01-25T08:58:11;95637.56;;;3.19;100.00
12793;BME280;6460;42.684;23.260;2023-01-25T09:00:39;95645.06;;;3.36;100.00
12793;BME280;6460;42.684;23.260;2023-01-25T09:03:07;95643.44;;;3.16;100.00
12793;BME280;6460;42.684;23.260;2023-01-25T09:05:37;95641.63;;;3.35;100.00
12793;BME280;6460;42.684;23.260;2023-01-25T09:08:06;95641.75;;;3.25;100.00
12793;BME280;6460;42.684;23.260;2023-01-25T09:10:33;95643.38;;;3.45;100.00
12793;BME280;6460;42.684;23.260;2023-01-25T09:13:01;95644.72;;;3.42;100.00
12793;BME280;6460;42.684;23.260;2023-01-25T09:15:28;95643.66;;;3.19;100.00
12793;BME280;6460;42.684;23.260;2023-01-25T09:17:55;95629.31;;;3.20;100.00
12793;BME280;6460;42.684;23.260;2023-01-25T09:20:23;95625.78;;;3.49;100.00
12793;BME280;6460;42.684;23.260;2023-01-25T09:22:53;95626.81;;;3.53;100.00
12793;BME280;6460;42.684;23.260;2023-01-25T09:25:21;95622.50;;;3.57;100.00
12793;BME280;6460;42.684;23.260;2023-01-25T09:27:49;95623.00;;;3.59;100.00
12793;BME280;6460;42.684;23.260;2023-01-25T09:30:17;95617.94;;;3.39;100.00
12793;BME280;6460;42.684;23.260;2023-01-25T09:32:47;95617.25;;;3.52;100.00
12793;BME280;6460;42.684;23.260;2023-01-25T09:35:14;95606.91;;;3.50;100.00
12793;BME280;6460;42.684;23.260;2023-01-25T09:37:41;95600.75;;;3.73;100.00
12793;BME280;6460;42.684;23.260;2023-01-25T09:40:18;95606.28;;;3.77;100.00
12793;BME280;6460;42.684;23.260;2023-01-25T09:42:59;95601.88;;;3.49;100.00
12793;BME280;6460;42.684;23.260;2023-01-25T09:45:31;95594.44;;;3.69;100.00
12793;BME280;6460;42.684;23.260;2023-01-25T09:51:02;95579.13;;;3.61;100.00
12793;BME280;6460;42.684;23.260;2023-01-25T09:53:34;95589.53;;;3.15;100.00
12793;BME280;6460;42.684;23.260;2023-01-25T09:56:10;95571.66;;;3.82;100.00
12793;BME280;6460;42.684;23.260;2023-01-25T09:58:41;95572.00;;;3.94;100.00
12793;BME280;6460;42.684;23.260;2023-01-25T10:01:26;95568.13;;;3.87;100.00
12793;BME280;6460;42.684;23.260;2023-01-25T10:03:58;95566.28;;;3.26;100.00
12793;BME280;6460;42.684;23.260;2023-01-25T10:06:36;95562.19;;;3.76;100.00
12793;BME280;6460;42.684;23.260;2023-01-25T10:09:10;95559.78;;;3.93;100.00
12793;BME280;6460;42.684;23.260;2023-01-25T10:11:41;95550.44;;;3.96;100.00
12793;BME280;6460;42.684;23.260;2023-01-25T10:14:13;95542.06;;;3.70;100.00
12793;BME280;6460;42.684;23.260;2023-01-25T10:16:54;95544.19;;;3.68;100.00
12793;BME280;6460;42.684;23.260;2023-01-25T10:19:30;95541.81;;;3.29;100.00
12793;BME280;6460;42.684;23.260;2023-01-25T10:22:03;95533.00;;;3.71;100.00
12793;BME280;6460;42.684;23.260;2023-01-25T10:27:27;95539.75;;;3.45;100.00
12793;BME280;6460;42.684;23.260;2023-01-25T10:30:03;95534.69;;;3.99;100.00
12793;BME280;6460;42.684;23.260;2023-01-25T10:32:39;95526.75;;;4.45;100.00
12793;BME280;6460;42.684;23.260;2023-01-25T10:35:14;95524.22;;;5.08;100.00
12793;BME280;6460;42.684;23.260;2023-01-25T10:37:42;95522.56;;;4.99;100.00
12793;BME280;6460;42.684;23.260;2023-01-25T10:40:14;95515.72;;;4.79;100.00
12793;BME280;6460;42.684;23.260;2023-01-25T10:42:50;95511.09;;;4.71;100.00
12793;BME280;6460;42.684;23.260;2023-01-25T10:45:19;95510.75;;;4.32;100.00
12793;BME280;6460;42.684;23.260;2023-01-25T10:47:49;95508.22;;;4.54;100.00
12793;BME280;6460;42.684;23.260;2023-01-25T10:50:43;95495.78;;;4.36;100.00
12793;BME280;6460;42.684;23.260;2023-01-25T10:53:28;95495.31;;;4.61;100.00
12793;BME280;6460;42.684;23.260;2023-01-25T10:56:11;95492.47;;;4.71;100.00
12793;BME280;6460;42.684;23.260;2023-01-25T10:58:46;95484.03;;;4.23;100.00
12793;BME280;6460;42.684;23.260;2023-01-25T11:01:25;95490.88;;;4.56;100.00
12793;BME280;6460;42.684;23.260;2023-01-25T11:03:53;95494.94;;;4.67;100.00
12793;BME280;6460;42.684;23.260;2023-01-25T11:06:33;95486.34;;;4.57;100.00
12793;BME280;6460;42.684;23.260;2023-01-25T11:09:01;95486.47;;;4.65;100.00
12793;BME280;6460;42.684;23.260;2023-01-25T11:11:34;95481.03;;;4.84;100.00
12793;BME280;6460;42.684;23.260;2023-01-25T11:14:14;95474.91;;;4.97;100.00
12793;BME280;6460;42.684;23.260;2023-01-25T11:16:45;95473.31;;;4.96;100.00
12793;BME280;6460;42.684;23.260;2023-01-25T11:19:30;95470.19;;;4.94;100.00
12793;BME280;6460;42.684;23.260;2023-01-25T11:21:58;95462.94;;;4.95;100.00
12793;BME280;6460;42.684;23.260;2023-01-25T11:24:25;95459.72;;;4.84;100.00
12793;BME280;6460;42.684;23.260;2023-01-25T11:27:12;95459.88;;;5.01;100.00
12793;BME280;6460;42.684;23.260;2023-01-25T11:29:41;95462.66;;;4.96;100.00
12793;BME280;6460;42.684;23.260;2023-01-25T11:32:16;95457.94;;;5.07;100.00
12793;BME280;6460;42.684;23.260;2023-01-25T11:34:47;95446.31;;;4.62;100.00
12793;BME280;6460;42.684;23.260;2023-01-25T11:37:27;95450.47;;;4.68;100.00
12793;BME280;6460;42.684;23.260;2023-01-25T11:40:04;95447.50;;;4.69;100.00
12793;BME280;6460;42.684;23.260;2023-01-25T11:42:43;95437.16;;;4.82;100.00
12793;BME280;6460;42.684;23.260;2023-01-25T11:45:41;95429.47;;;4.39;100.00
12793;BME280;6460;42.684;23.260;2023-01-25T11:48:33;95424.63;;;4.41;100.00
12793;BME280;6460;42.684;23.260;2023-01-25T11:51:12;95423.09;;;3.94;100.00
12793;BME280;6460;42.684;23.260;2023-01-25T11:53:55;95421.84;;;4.60;100.00
12793;BME280;6460;42.684;23.260;2023-01-25T11:56:35;95411.31;;;4.68;100.00
12793;BME280;6460;42.684;23.260;2023-01-25T11:59:20;95411.41;;;4.63;100.00
12793;BME280;6460;42.684;23.260;2023-01-25T12:02:06;95414.38;;;4.35;100.00
12793;BME280;6460;42.684;23.260;2023-01-25T12:04:56;95413.34;;;4.85;100.00
12793;BME280;6460;42.684;23.260;2023-01-25T12:07:33;95409.81;;;4.76;100.00
12793;BME280;6460;42.684;23.260;2023-01-25T12:10:19;95408.25;;;4.34;100.00
12793;BME280;6460;42.684;23.260;2023-01-25T12:12:54;95404.22;;;4.64;100.00
12793;BME280;6460;42.684;23.260;2023-01-25T12:15:47;95403.19;;;4.05;100.00
12793;BME280;6460;42.684;23.260;2023-01-25T12:18:32;95398.19;;;4.31;100.00
12793;BME280;6460;42.684;23.260;2023-01-25T12:21:08;95399.88;;;4.68;100.00
12793;BME280;6460;42.684;23.260;2023-01-25T12:23:47;95396.00;;;4.06;100.00
12793;BME280;6460;42.684;23.260;2023-01-25T12:26:23;95387.88;;;4.30;100.00
12793;BME280;6460;42.684;23.260;2023-01-25T12:28:58;95387.38;;;4.55;100.00
12793;BME280;6460;42.684;23.260;2023-01-25T12:31:36;95384.09;;;4.58;100.00
12793;BME280;6460;42.684;23.260;2023-01-25T12:34:13;95379.44;;;4.91;100.00
12793;BME280;6460;42.684;23.260;2023-01-25T12:36:49;95385.19;;;4.57;100.00
12793;BME280;6460;42.684;23.260;2023-01-25T12:39:19;95375.22;;;5.12;100.00
12793;BME280;6460;42.684;23.260;2023-01-25T12:41:54;95364.66;;;4.85;100.00
12793;BME280;6460;42.684;23.260;2023-01-25T12:44:26;95376.44;;;4.92;100.00
12793;BME280;6460;42.684;23.260;2023-01-25T12:47:00;95367.25;;;4.49;100.00
12793;BME280;6460;42.684;23.260;2023-01-25T12:49:36;95367.06;;;4.32;100.00
12793;BME280;6460;42.684;23.260;2023-01-25T12:52:18;95362.69;;;4.63;100.00
12793;BME280;6460;42.684;23.260;2023-01-25T12:54:47;95367.41;;;4.66;100.00
12793;BME280;6460;42.684;23.260;2023-01-25T12:57:20;95359.38;;;4.44;100.00
12793;BME280;6460;42.684;23.260;2023-01-25T12:59:56;95368.06;;;4.36;100.00
12793;BME280;6460;42.684;23.260;2023-01-25T13:02:44;95357.47;;;4.71;100.00
12793;BME280;6460;42.684;23.260;2023-01-25T13:05:25;95361.34;;;4.65;100.00
12793;BME280;6460;42.684;23.260;2023-01-25T13:08:01;95354.44;;;4.37;100.00
12793;BME280;6460;42.684;23.260;2023-01-25T13:10:32;95344.13;;;4.08;100.00
12793;BME280;6460;42.684;23.260;2023-01-25T13:13:14;95340.09;;;4.11;100.00
12793;BME280;6460;42.684;23.260;2023-01-25T13:15:44;95335.91;;;4.59;100.00
12793;BME280;6460;42.684;23.260;2023-01-25T13:18:39;95344.97;;;4.31;100.00
12793;BME280;6460;42.684;23.260;2023-01-25T13:21:41;95336.53;;;4.29;100.00
12793;BME280;6460;42.684;23.260;2023-01-25T13:24:19;95339.66;;;4.58;100.00
12793;BME280;6460;42.684;23.260;2023-01-25T13:26:56;95336.91;;;4.09;100.00
12793;BME280;6460;42.684;23.260;2023-01-25T13:32:00;95336.72;;;4.05;100.00
12793;BME280;6460;42.684;23.260;2023-01-25T13:34:56;95347.75;;;3.85;100.00
12793;BME280;6460;42.684;23.260;2023-01-25T13:37:26;95334.75;;;3.97;100.00
12793;BME280;6460;42.684;23.260;2023-01-25T13:39:57;95348.81;;;3.84;100.00
12793;BME280;6460;42.684;23.260;2023-01-25T13:42:27;95345.38;;;3.97;100.00
12793;BME280;6460;42.684;23.260;2023-01-25T13:44:56;95350.28;;;3.90;100.00
12793;BME280;6460;42.684;23.260;2023-01-25T13:47:28;95349.22;;;4.32;100.00
12793;BME280;6460;42.684;23.260;2023-01-25T13:49:59;95353.47;;;4.19;100.00
12793;BME280;6460;42.684;23.260;2023-01-25T13:52:30;95357.81;;;4.02;100.00
12793;BME280;6460;42.684;23.260;2023-01-25T13:54:57;95354.84;;;4.03;100.00
12793;BME280;6460;42.684;23.260;2023-01-25T13:57:26;95360.47;;;4.29;100.00
12793;BME280;6460;42.684;23.260;2023-01-25T14:00:01;95356.63;;;4.08;100.00
12793;BME280;6460;42.684;23.260;2023-01-25T14:02:29;95354.31;;;3.74;100.00
12793;BME280;6460;42.684;23.260;2023-01-25T14:05:00;95360.84;;;3.49;100.00
12793;BME280;6460;42.684;23.260;2023-01-25T14:07:32;95358.75;;;3.79;100.00
12793;BME280;6460;42.684;23.260;2023-01-25T14:10:02;95353.66;;;3.50;100.00
12793;BME280;6460;42.684;23.260;2023-01-25T14:12:33;95356.84;;;3.65;100.00
12793;BME280;6460;42.684;23.260;2023-01-25T14:15:22;95357.97;;;3.78;100.00
12793;BME280;6460;42.684;23.260;2023-01-25T14:18:11;95360.53;;;3.37;100.00
12793;BME280;6460;42.684;23.260;2023-01-25T14:20:39;95348.88;;;3.65;100.00
12793;BME280;6460;42.684;23.260;2023-01-25T14:23:21;95348.03;;;3.70;100.00
12793;BME280;6460;42.684;23.260;2023-01-25T14:25:48;95360.00;;;3.67;100.00
12793;BME280;6460;42.684;23.260;2023-01-25T14:28:16;95351.91;;;3.59;100.00
12793;BME280;6460;42.684;23.260;2023-01-25T14:30:49;95340.25;;;3.87;100.00
12793;BME280;6460;42.684;23.260;2023-01-25T14:33:18;95335.53;;;3.84;100.00
12793;BME280;6460;42.684;23.260;2023-01-25T14:35:46;95332.50;;;4.04;100.00
12793;BME280;6460;42.684;23.260;2023-01-25T14:38:21;95331.59;;;3.95;100.00
12793;BME280;6460;42.684;23.260;2023-01-25T14:40:49;95328.56;;;4.02;100.00
12793;BME280;6460;42.684;23.260;2023-01-25T14:43:17;95326.66;;;4.02;100.00
12793;BME280;6460;42.684;23.260;2023-01-25T14:45:44;95333.84;;;3.88;100.00
12793;BME280;6460;42.684;23.260;2023-01-25T14:48:34;95325.25;;;3.64;100.00
12793;BME280;6460;42.684;23.260;2023-01-25T14:51:03;95337.06;;;3.26;100.00
12793;BME280;6460;42.684;23.260;2023-01-25T14:53:33;95333.59;;;3.44;100.00
12793;BME280;6460;42.684;23.260;2023-01-25T14:56:05;95340.44;;;3.31;100.00
12793;BME280;6460;42.684;23.260;2023-01-25T14:58:42;95331.91;;;2.97;100.00
12793;BME280;6460;42.684;23.260;2023-01-25T15:01:23;95331.22;;;2.91;100.00
12793;BME280;6460;42.684;23.260;2023-01-25T15:03:52;95341.84;;;2.91;100.00
12793;BME280;6460;42.684;23.260;2023-01-25T15:06:21;95341.59;;;3.06;100.00
12793;BME280;6460;42.684;23.260;2023-01-25T15:09:04;95350.25;;;2.80;100.00
12793;BME280;6460;42.684;23.260;2023-01-25T15:11:33;95353.97;;;2.97;100.00
12793;BME280;6460;42.684;23.260;2023-01-25T15:14:15;95370.03;;;3.25;100.00
12793;BME280;6460;42.684;23.260;2023-01-25T15:16:42;95362.72;;;2.98;100.00
12793;BME280;6460;42.684;23.260;2023-01-25T15:19:21;95362.44;;;2.99;100.00
12793;BME280;6460;42.684;23.260;2023-01-25T15:21:48;95370.41;;;2.99;100.00
12793;BME280;6460;42.684;23.260;2023-01-25T15:24:17;95372.34;;;3.12;100.00
12793;BME280;6460;42.684;23.260;2023-01-25T15:26:49;95368.91;;;3.12;100.00
12793;BME280;6460;42.684;23.260;2023-01-25T15:29:18;95365.06;;;3.18;100.00
12793;BME280;6460;42.684;23.260;2023-01-25T15:31:48;95368.59;;;2.76;100.00
12793;BME280;6460;42.684;23.260;2023-01-25T15:34:17;95367.00;;;2.75;100.00
12793;BME280;6460;42.684;23.260;2023-01-25T15:37:08;95374.56;;;2.87;100.00
12793;BME280;6460;42.684;23.260;2023-01-25T15:39:36;95363.84;;;3.10;100.00
12793;BME280;6460;42.684;23.260;2023-01-25T15:42:04;95378.88;;;2.83;100.00
12793;BME280;6460;42.684;23.260;2023-01-25T15:44:31;95378.22;;;3.09;100.00
12793;BME280;6460;42.684;23.260;2023-01-25T15:47:00;95381.00;;;2.62;100.00
12793;BME280;6460;42.684;23.260;2023-01-25T15:49:28;95371.97;;;2.63;100.00
12793;BME280;6460;42.684;23.260;2023-01-25T15:51:57;95370.69;;;2.60;100.00
12793;BME280;6460;42.684;23.260;2023-01-25T15:54:25;95369.38;;;2.58;100.00
12793;BME280;6460;42.684;23.260;2023-01-25T15:56:55;95364.06;;;2.39;100.00
12793;BME280;6460;42.684;23.260;2023-01-25T15:59:24;95363.88;;;2.73;100.00
12793;BME280;6460;42.684;23.260;2023-01-25T16:01:52;95364.69;;;2.50;100.00
12793;BME280;6460;42.684;23.260;2023-01-25T16:04:19;95361.56;;;2.48;100.00
12793;BME280;6460;42.684;23.260;2023-01-25T16:06:48;95375.56;;;2.30;100.00
12793;BME280;6460;42.684;23.260;2023-01-25T16:09:20;95372.63;;;2.07;100.00
12793;BME280;6460;42.684;23.260;2023-01-25T16:11:52;95364.75;;;2.26;100.00
12793;BME280;6460;42.684;23.260;2023-01-25T16:14:21;95368.16;;;2.27;100.00
12793;BME280;6460;42.684;23.260;2023-01-25T16:16:54;95370.19;;;2.35;100.00
12793;BME280;6460;42.684;23.260;2023-01-25T16:19:23;95364.56;;;2.18;100.00
12793;BME280;6460;42.684;23.260;2023-01-25T16:21:50;95361.56;;;2.48;100.00
12793;BME280;6460;42.684;23.260;2023-01-25T16:24:18;95370.38;;;2.20;100.00
12793;BME280;6460;42.684;23.260;2023-01-25T16:26:52;95369.63;;;2.38;100.00
12793;BME280;6460;42.684;23.260;2023-01-25T16:40:18;95367.56;;;2.53;100.00
12793;BME280;6460;42.684;23.260;2023-01-25T16:42:48;95371.38;;;2.24;100.00
12793;BME280;6460;42.684;23.260;2023-01-25T16:45:15;95370.38;;;2.20;100.00
12793;BME280;6460;42.684;23.260;2023-01-25T16:47:44;95360.66;;;1.86;100.00
12793;BME280;6460;42.684;23.260;2023-01-25T16:50:12;95365.41;;;1.89;100.00
12793;BME280;6460;42.684;23.260;2023-01-25T16:52:39;95361.09;;;2.41;100.00
12793;BME280;6460;42.684;23.260;2023-01-25T16:55:08;95372.66;;;2.50;100.00
12793;BME280;6460;42.684;23.260;2023-01-25T16:57:36;95353.41;;;1.97;100.00
12793;BME280;6460;42.684;23.260;2023-01-25T17:00:10;95351.88;;;1.91;100.00
12793;BME280;6460;42.684;23.260;2023-01-25T17:02:38;95351.13;;;2.33;100.00
12793;BME280;6460;42.684;23.260;2023-01-25T17:05:07;95355.16;;;2.06;100.00
12793;BME280;6460;42.684;23.260;2023-01-25T17:07:34;95360.13;;;2.13;100.00
12793;BME280;6460;42.684;23.260;2023-01-25T17:10:02;95356.00;;;2.26;100.00
12793;BME280;6460;42.684;23.260;2023-01-25T17:12:30;95354.47;;;2.20;100.00
12793;BME280;6460;42.684;23.260;2023-01-25T17:14:57;95348.16;;;2.16;100.00
12793;BME280;6460;42.684;23.260;2023-01-25T17:17:26;95354.22;;;2.40;100.00
12793;BME280;6460;42.684;23.260;2023-01-25T17:19:54;95355.38;;;2.52;100.00
12793;BME280;6460;42.684;23.260;2023-01-25T17:22:21;95363.59;;;2.32;100.00
12793;BME280;6460;42.684;23.260;2023-01-25T17:24:48;95366.31;;;2.27;100.00
12793;BME280;6460;42.684;23.260;2023-01-25T17:27:15;95355.03;;;2.17;100.00
12793;BME280;6460;42.684;23.260;2023-01-25T17:29:42;95358.63;;;2.02;100.00
12793;BME280;6460;42.684;23.260;2023-01-25T17:32:10;95356.50;;;2.04;100.00
12793;BME280;6460;42.684;23.260;2023-01-25T17:34:38;95357.84;;;2.01;100.00
12793;BME280;6460;42.684;23.260;2023-01-25T17:37:05;95352.03;;;1.99;100.00
12793;BME280;6460;42.684;23.260;2023-01-25T17:39:32;95352.06;;;2.23;100.00
12793;BME280;6460;42.684;23.260;2023-01-25T17:41:59;95345.56;;;1.87;100.00
12793;BME280;6460;42.684;23.260;2023-01-25T17:44:26;95346.47;;;2.01;100.00
12793;BME280;6460;42.684;23.260;2023-01-25T17:46:53;95338.78;;;2.23;100.00
12793;BME280;6460;42.684;23.260;2023-01-25T17:49:20;95337.88;;;2.09;100.00
12793;BME280;6460;42.684;23.260;2023-01-25T17:51:50;95325.16;;;1.87;100.00
12793;BME280;6460;42.684;23.260;2023-01-25T17:54:17;95328.19;;;1.99;100.00
12793;BME280;6460;42.684;23.260;2023-01-25T17:56:44;95322.56;;;2.06;100.00
12793;BME280;6460;42.684;23.260;2023-01-25T17:59:10;95320.97;;;1.81;100.00
12793;BME280;6460;42.684;23.260;2023-01-25T18:01:38;95326.56;;;2.03;100.00
12793;BME280;6460;42.684;23.260;2023-01-25T18:04:07;95321.94;;;1.90;100.00
12793;BME280;6460;42.684;23.260;2023-01-25T18:06:34;95314.81;;;1.86;100.00
12793;BME280;6460;42.684;23.260;2023-01-25T18:09:03;95318.38;;;1.76;100.00
12793;BME280;6460;42.684;23.260;2023-01-25T18:11:32;95319.16;;;1.77;100.00
12793;BME280;6460;42.684;23.260;2023-01-25T18:14:01;95314.63;;;1.53;100.00
12793;BME280;6460;42.684;23.260;2023-01-25T18:16:30;95318.94;;;1.97;100.00
12793;BME280;6460;42.684;23.260;2023-01-25T18:18:58;95317.31;;;2.01;100.00
12793;BME280;6460;42.684;23.260;2023-01-25T18:21:27;95317.94;;;1.69;100.00
12793;BME280;6460;42.684;23.260;2023-01-25T18:23:56;95318.69;;;1.46;100.00
12793;BME280;6460;42.684;23.260;2023-01-25T18:26:27;95316.28;;;1.73;100.00
12793;BME280;6460;42.684;23.260;2023-01-25T18:28:58;95308.63;;;1.95;100.00
12793;BME280;6460;42.684;23.260;2023-01-25T18:31:25;95310.25;;;1.68;100.00
12793;BME280;6460;42.684;23.260;2023-01-25T18:33:52;95308.69;;;1.90;100.00
12793;BME280;6460;42.684;23.260;2023-01-25T18:36:19;95305.66;;;1.78;100.00
12793;BME280;6460;42.684;23.260;2023-01-25T18:38:46;95315.34;;;1.35;100.00
12793;BME280;6460;42.684;23.260;2023-01-25T18:41:13;95305.03;;;1.34;100.00
12793;BME280;6460;42.684;23.260;2023-01-25T18:43:41;95304.53;;;1.84;100.00
12793;BME280;6460;42.684;23.260;2023-01-25T18:46:08;95315.78;;;1.71;100.00
12793;BME280;6460;42.684;23.260;2023-01-25T18:48:36;95321.41;;;1.88;100.00
12793;BME280;6460;42.684;23.260;2023-01-25T18:51:05;95322.31;;;2.02;100.00
12793;BME280;6460;42.684;23.260;2023-01-25T18:53:33;95316.91;;;2.12;100.00
12793;BME280;6460;42.684;23.260;2023-01-25T18:56:02;95325.03;;;1.97;100.00
12793;BME280;6460;42.684;23.260;2023-01-25T18:58:31;95314.97;;;2.18;100.00
12793;BME280;6460;42.684;23.260;2023-01-25T19:01:05;95316.91;;;2.12;100.00
12793;BME280;6460;42.684;23.260;2023-01-25T19:03:33;95312.75;;;2.06;100.00
12793;BME280;6460;42.684;23.260;2023-01-25T19:06:00;95309.34;;;1.77;100.00